sensor_id;sensor_type;location;lat;lon;timestamp;pressure;altitude;pressure_sealevel;temperature;humidity
10176;BME280;18221;38.704;0.152;2022-11-02T00:12:58;99521.31;;;23.13;54.01
10176;BME280;18221;38.704;0.152;2022-11-02T00:15:32;99520.72;;;23.24;54.28
10176;BME280;18221;38.704;0.152;2022-11-02T00:18:04;99520.72;;;23.24;54.80
10176;BME280;18221;38.704;0.152;2022-11-02T00:20:34;99515.06;;;23.13;55.45
10176;BME280;18221;38.704;0.152;2022-11-02T00:23:03;99514.47;;;23.17;55.58
10176;BME280;18221;38.704;0.152;2022-11-02T00:25:33;99510.91;;;23.10;55.71
10176;BME280;18221;38.704;0.152;2022-11-02T00:28:01;99510.50;;;23.20;55.85
10176;BME280;18221;38.704;0.152;2022-11-02T00:30:30;99513.84;;;23.22;55.85
10176;BME280;18221;38.704;0.152;2022-11-02T00:32:58;99508.84;;;23.12;56.04
10176;BME280;18221;38.704;0.152;2022-11-02T00:35:27;99507.78;;;23.13;55.69
10176;BME280;18221;38.704;0.152;2022-11-02T00:37:55;99513.00;;;23.08;55.59
10176;BME280;18221;38.704;0.152;2022-11-02T00:40:23;99513.41;;;23.12;55.65
10176;BME280;18221;38.704;0.152;2022-11-02T00:42:51;99516.31;;;23.10;55.81
10176;BME280;18221;38.704;0.152;2022-11-02T00:45:19;99513.41;;;23.18;55.29
10176;BME280;18221;38.704;0.152;2022-11-02T00:47:49;99520.09;;;23.09;55.48
10176;BME280;18221;38.704;0.152;2022-11-02T00:50:17;99516.31;;;23.10;55.56
10176;BME280;18221;38.704;0.152;2022-11-02T00:52:45;99516.53;;;23.22;55.59
10176;BME280;18221;38.704;0.152;2022-11-02T00:55:13;99515.06;;;23.13;55.97
10176;BME280;18221;38.704;0.152;2022-11-02T00:57:43;99510.31;;;23.15;56.23
10176;BME280;18221;38.704;0.152;2022-11-02T01:00:13;99511.75;;;23.17;56.35
10176;BME280;18221;38.704;0.152;2022-11-02T01:02:41;99506.53;;;23.22;56.17
10176;BME280;18221;38.704;0.152;2022-11-02T01:05:11;99502.97;;;23.28;55.95
10176;BME280;18221;38.704;0.152;2022-11-02T01:07:39;99504.03;;;23.27;56.04
10176;BME280;18221;38.704;0.152;2022-11-02T01:10:09;99509.66;;;23.19;56.07
10176;BME280;18221;38.704;0.152;2022-11-02T01:12:37;99512.78;;;23.16;56.55
10176;BME280;18221;38.704;0.152;2022-11-02T01:15:08;99515.91;;;23.13;56.87
10176;BME280;18221;38.704;0.152;2022-11-02T01:17:37;99511.94;;;23.16;56.78
10176;BME280;18221;38.704;0.152;2022-11-02T01:20:06;99510.09;;;23.16;57.03
10176;BME280;18221;38.704;0.152;2022-11-02T01:22:36;99514.03;;;23.07;57.07
10176;BME280;18221;38.704;0.152;2022-11-02T01:25:04;99510.50;;;23.13;57.23
10176;BME280;18221;38.704;0.152;2022-11-02T01:27:33;99513.00;;;23.08;57.22
10176;BME280;18221;38.704;0.152;2022-11-02T01:30:01;99509.66;;;23.06;57.35
10176;BME280;18221;38.704;0.152;2022-11-02T01:32:29;99508.59;;;23.20;57.20
10176;BME280;18221;38.704;0.152;2022-11-02T01:34:58;99509.06;;;23.17;57.21
10176;BME280;18221;38.704;0.152;2022-11-02T01:37:27;99504.69;;;23.23;57.22
10176;BME280;18221;38.704;0.152;2022-11-02T01:39:57;99509.44;;;23.21;57.12
10176;BME280;18221;38.704;0.152;2022-11-02T01:42:26;99503.84;;;23.22;57.61
10176;BME280;18221;38.704;0.152;2022-11-02T01:44:54;99510.09;;;23.29;57.60
10176;BME280;18221;38.704;0.152;2022-11-02T01:47:25;99507.56;;;23.34;57.28
10176;BME280;18221;38.704;0.152;2022-11-02T01:50:02;99508.22;;;23.37;57.25
10176;BME280;18221;38.704;0.152;2022-11-02T01:52:34;99508.66;;;23.40;57.09
10176;BME280;18221;38.704;0.152;2022-11-02T01:55:10;99508.88;;;23.39;57.16
10176;BME280;18221;38.704;0.152;2022-11-02T01:57:40;99501.75;;;23.44;57.00
10176;BME280;18221;38.704;0.152;2022-11-02T02:00:14;99504.63;;;23.36;57.05
10176;BME280;18221;38.704;0.152;2022-11-02T02:02:47;99510.53;;;23.40;57.44
10176;BME280;18221;38.704;0.152;2022-11-02T02:05:17;99503.44;;;23.39;57.20
10176;BME280;18221;38.704;0.152;2022-11-02T02:07:48;99504.66;;;23.29;57.15
10176;BME280;18221;38.704;0.152;2022-11-02T02:10:19;99501.94;;;23.36;57.08
10176;BME280;18221;38.704;0.152;2022-11-02T02:12:47;99498.00;;;23.19;57.41
10176;BME280;18221;38.704;0.152;2022-11-02T02:15:15;99500.91;;;23.24;57.66
10176;BME280;18221;38.704;0.152;2022-11-02T02:17:51;99505.09;;;23.20;57.74
10176;BME280;18221;38.704;0.152;2022-11-02T02:20:40;99511.31;;;23.20;57.89
10176;BME280;18221;38.704;0.152;2022-11-02T02:24:13;99498.00;;;23.25;57.54
10176;BME280;18221;38.704;0.152;2022-11-02T02:27:08;99505.91;;;23.20;57.80
10176;BME280;18221;38.704;0.152;2022-11-02T02:30:11;99496.97;;;23.20;57.86
10176;BME280;18221;38.704;0.152;2022-11-02T02:32:48;99502.38;;;23.13;58.17
10176;BME280;18221;38.704;0.152;2022-11-02T02:35:25;99505.47;;;23.10;58.45
10176;BME280;18221;38.704;0.152;2022-11-02T02:37:57;99498.41;;;22.96;59.05
10176;BME280;18221;38.704;0.152;2022-11-02T02:40:33;99490.69;;;23.06;58.86
10176;BME280;18221;38.704;0.152;2022-11-02T02:43:07;99491.34;;;23.15;58.20
10176;BME280;18221;38.704;0.152;2022-11-02T02:45:43;99487.97;;;23.13;58.22
10176;BME280;18221;38.704;0.152;2022-11-02T02:48:16;99487.16;;;23.12;58.01
10176;BME280;18221;38.704;0.152;2022-11-02T02:50:49;99487.78;;;23.21;57.96
10176;BME280;18221;38.704;0.152;2022-11-02T02:53:23;99485.69;;;23.16;57.76
10176;BME280;18221;38.704;0.152;2022-11-02T02:55:57;99488.19;;;23.18;57.84
10176;BME280;18221;38.704;0.152;2022-11-02T02:58:32;99489.44;;;23.22;57.66
10176;BME280;18221;38.704;0.152;2022-11-02T03:01:05;99482.16;;;23.22;57.81
10176;BME280;18221;38.704;0.152;2022-11-02T03:03:34;99483.19;;;23.21;57.47
10176;BME280;18221;38.704;0.152;2022-11-02T03:06:14;99489.03;;;23.05;58.16
10176;BME280;18221;38.704;0.152;2022-11-02T03:08:48;99496.75;;;23.08;58.37
10176;BME280;18221;38.704;0.152;2022-11-02T03:11:20;99485.91;;;22.95;58.13
10176;BME280;18221;38.704;0.152;2022-11-02T03:14:07;99493.59;;;22.92;58.79
10176;BME280;18221;38.704;0.152;2022-11-02T03:17:05;99492.38;;;23.01;58.70
10176;BME280;18221;38.704;0.152;2022-11-02T03:19:50;99495.47;;;22.98;58.50
10176;BME280;18221;38.704;0.152;2022-11-02T03:22:29;99492.16;;;22.96;58.79
10176;BME280;18221;38.704;0.152;2022-11-02T03:25:11;99490.69;;;23.06;58.31
10176;BME280;18221;38.704;0.152;2022-11-02T03:27:49;99491.72;;;22.92;58.76
10176;BME280;18221;38.704;0.152;2022-11-02T03:30:20;99487.78;;;22.88;58.95
10176;BME280;18221;38.704;0.152;2022-11-02T03:33:00;99494.25;;;22.94;58.72
10176;BME280;18221;38.704;0.152;2022-11-02T03:35:39;99483.38;;;22.87;59.06
10176;BME280;18221;38.704;0.152;2022-11-02T03:38:16;99486.31;;;22.86;59.16
10176;BME280;18221;38.704;0.152;2022-11-02T03:40:49;99491.72;;;22.92;59.22
10176;BME280;18221;38.704;0.152;2022-11-02T03:43:21;99486.09;;;22.87;59.12
10176;BME280;18221;38.704;0.152;2022-11-02T03:45:54;99484.25;;;22.94;58.58
10176;BME280;18221;38.704;0.152;2022-11-02T03:48:30;99490.69;;;22.93;58.61
10176;BME280;18221;38.704;0.152;2022-11-02T03:51:06;99498.41;;;22.83;58.96
10176;BME280;18221;38.704;0.152;2022-11-02T03:53:43;99497.13;;;22.92;58.66
10176;BME280;18221;38.704;0.152;2022-11-02T03:56:22;99497.53;;;22.76;59.06
10176;BME280;18221;38.704;0.152;2022-11-02T03:58:51;99491.13;;;22.84;59.06
10176;BME280;18221;38.704;0.152;2022-11-02T04:01:20;99508.75;;;22.66;59.36
10176;BME280;18221;38.704;0.152;2022-11-02T04:03:50;99495.88;;;22.75;58.76
10176;BME280;18221;38.704;0.152;2022-11-02T04:06:18;99496.53;;;22.84;58.70
10176;BME280;18221;38.704;0.152;2022-11-02T04:08:48;99499.63;;;22.81;58.63
10176;BME280;18221;38.704;0.152;2022-11-02T04:11:16;99504.00;;;22.75;58.92
10176;BME280;18221;38.704;0.152;2022-11-02T04:14:01;99505.47;;;22.84;58.51
10176;BME280;18221;38.704;0.152;2022-11-02T04:16:46;99508.38;;;22.83;58.56
10176;BME280;18221;38.704;0.152;2022-11-02T04:19:16;99505.25;;;22.79;58.36
10176;BME280;18221;38.704;0.152;2022-11-02T04:21:55;99514.25;;;22.86;58.02
10176;BME280;18221;38.704;0.152;2022-11-02T04:24:41;99518.59;;;22.81;58.34
10176;BME280;18221;38.704;0.152;2022-11-02T04:27:26;99511.94;;;22.83;58.34
10176;BME280;18221;38.704;0.152;2022-11-02T04:29:54;99523.13;;;22.73;58.58
10176;BME280;18221;38.704;0.152;2022-11-02T04:32:22;99522.13;;;22.68;58.75
10176;BME280;18221;38.704;0.152;2022-11-02T04:35:07;99522.94;;;22.68;59.10
10176;BME280;18221;38.704;0.152;2022-11-02T04:37:38;99517.94;;;22.65;59.29
10176;BME280;18221;38.704;0.152;2022-11-02T04:40:24;99519.56;;;22.60;59.43
10176;BME280;18221;38.704;0.152;2022-11-02T04:42:52;99528.78;;;22.72;59.33
10176;BME280;18221;38.704;0.152;2022-11-02T04:45:19;99519.63;;;22.80;58.93
10176;BME280;18221;38.704;0.152;2022-11-02T04:47:47;99518.38;;;22.82;58.65
10176;BME280;18221;38.704;0.152;2022-11-02T04:50:16;99523.78;;;22.76;58.80
10176;BME280;18221;38.704;0.152;2022-11-02T04:52:44;99521.06;;;22.69;58.93
10176;BME280;18221;38.704;0.152;2022-11-02T04:55:12;99531.69;;;22.70;59.14
10176;BME280;18221;38.704;0.152;2022-11-02T04:57:44;99524.38;;;22.71;59.26
10176;BME280;18221;38.704;0.152;2022-11-02T05:00:14;99528.16;;;22.77;58.58
10176;BME280;18221;38.704;0.152;2022-11-02T05:02:42;99529.22;;;22.76;58.86
10176;BME280;18221;38.704;0.152;2022-11-02T05:05:09;99534.84;;;22.81;58.76
10176;BME280;18221;38.704;0.152;2022-11-02T05:07:39;99533.56;;;22.77;58.98
10176;BME280;18221;38.704;0.152;2022-11-02T05:10:08;99533.72;;;22.62;58.97
10176;BME280;18221;38.704;0.152;2022-11-02T05:12:36;99545.41;;;22.62;59.36
10176;BME280;18221;38.704;0.152;2022-11-02T05:15:05;99542.50;;;22.64;59.28
10176;BME280;18221;38.704;0.152;2022-11-02T05:17:33;99546.25;;;22.63;59.25
10176;BME280;18221;38.704;0.152;2022-11-02T05:20:01;99546.88;;;22.71;58.95
10176;BME280;18221;38.704;0.152;2022-11-02T05:22:30;99550.44;;;22.72;59.08
10176;BME280;18221;38.704;0.152;2022-11-02T05:24:59;99548.16;;;22.76;58.84
10176;BME280;18221;38.704;0.152;2022-11-02T05:27:27;99534.59;;;22.69;59.13
10176;BME280;18221;38.704;0.152;2022-11-02T05:29:55;99538.38;;;22.68;59.25
10176;BME280;18221;38.704;0.152;2022-11-02T05:32:23;99534.19;;;22.65;59.22
10176;BME280;18221;38.704;0.152;2022-11-02T05:34:51;99554.59;;;22.68;59.28
10176;BME280;18221;38.704;0.152;2022-11-02T05:37:19;99548.13;;;22.69;59.28
10176;BME280;18221;38.704;0.152;2022-11-02T05:39:47;99550.00;;;22.68;59.20
10176;BME280;18221;38.704;0.152;2022-11-02T05:42:16;99550.13;;;22.54;59.24
10176;BME280;18221;38.704;0.152;2022-11-02T05:44:44;99551.22;;;22.59;59.16
10176;BME280;18221;38.704;0.152;2022-11-02T05:47:12;99552.44;;;22.57;59.40
10176;BME280;18221;38.704;0.152;2022-11-02T05:49:40;99557.50;;;22.66;58.98
10176;BME280;18221;38.704;0.152;2022-11-02T05:52:08;99556.66;;;22.66;59.03
10176;BME280;18221;38.704;0.152;2022-11-02T05:54:36;99561.69;;;22.76;58.88
10176;BME280;18221;38.704;0.152;2022-11-02T05:57:04;99566.91;;;22.70;58.84
10176;BME280;18221;38.704;0.152;2022-11-02T05:59:33;99573.78;;;22.73;58.68
10176;BME280;18221;38.704;0.152;2022-11-02T06:02:01;99559.78;;;22.63;58.92
10176;BME280;18221;38.704;0.152;2022-11-02T06:04:29;99573.69;;;22.60;58.96
10176;BME280;18221;38.704;0.152;2022-11-02T06:06:57;99573.03;;;22.58;59.06
10176;BME280;18221;38.704;0.152;2022-11-02T06:09:25;99569.56;;;22.64;58.82
10176;BME280;18221;38.704;0.152;2022-11-02T06:11:54;99572.03;;;22.59;59.17
10176;BME280;18221;38.704;0.152;2022-11-02T06:14:22;99569.50;;;22.51;59.36
10176;BME280;18221;38.704;0.152;2022-11-02T06:16:51;99572.00;;;22.52;59.01
10176;BME280;18221;38.704;0.152;2022-11-02T06:19:19;99574.50;;;22.47;59.47
10176;BME280;18221;38.704;0.152;2022-11-02T06:21:47;99573.00;;;22.45;59.62
10176;BME280;18221;38.704;0.152;2022-11-02T06:24:15;99579.03;;;22.40;59.90
10176;BME280;18221;38.704;0.152;2022-11-02T06:26:43;99576.53;;;22.45;59.69
10176;BME280;18221;38.704;0.152;2022-11-02T06:29:12;99584.06;;;22.50;59.58
10176;BME280;18221;38.704;0.152;2022-11-02T06:31:40;99577.81;;;22.49;59.52
10176;BME280;18221;38.704;0.152;2022-11-02T06:34:09;99581.16;;;22.51;59.29
10176;BME280;18221;38.704;0.152;2022-11-02T06:36:37;99583.03;;;22.51;59.37
10176;BME280;18221;38.704;0.152;2022-11-02T06:39:05;99585.72;;;22.51;59.73
10176;BME280;18221;38.704;0.152;2022-11-02T06:41:33;99585.06;;;22.42;59.75
10176;BME280;18221;38.704;0.152;2022-11-02T06:44:01;99588.22;;;22.46;59.83
10176;BME280;18221;38.704;0.152;2022-11-02T06:46:29;99585.91;;;22.43;59.94
10176;BME280;18221;38.704;0.152;2022-11-02T06:48:57;99588.34;;;22.31;60.14
10176;BME280;18221;38.704;0.152;2022-11-02T06:51:26;99590.91;;;22.46;59.96
10176;BME280;18221;38.704;0.152;2022-11-02T06:53:54;99596.38;;;22.52;59.76
10176;BME280;18221;38.704;0.152;2022-11-02T06:56:22;99601.34;;;22.55;59.74
10176;BME280;18221;38.704;0.152;2022-11-02T06:58:50;99600.13;;;22.58;59.74
10176;BME280;18221;38.704;0.152;2022-11-02T07:01:18;99592.84;;;22.58;59.44
10176;BME280;18221;38.704;0.152;2022-11-02T07:03:46;99607.22;;;22.59;59.35
10176;BME280;18221;38.704;0.152;2022-11-02T07:06:14;99610.13;;;22.57;59.44
10176;BME280;18221;38.704;0.152;2022-11-02T07:08:43;99605.91;;;22.42;59.87
10176;BME280;18221;38.704;0.152;2022-11-02T07:11:14;99612.69;;;22.65;59.16
10176;BME280;18221;38.704;0.152;2022-11-02T07:13:43;99613.66;;;22.58;59.40
10176;BME280;18221;38.704;0.152;2022-11-02T07:16:11;99612.88;;;22.64;59.24
10176;BME280;18221;38.704;0.152;2022-11-02T07:18:39;99613.72;;;22.71;59.26
10176;BME280;18221;38.704;0.152;2022-11-02T07:21:07;99610.84;;;22.79;59.08
10176;BME280;18221;38.704;0.152;2022-11-02T07:23:36;99606.44;;;22.65;59.37
10176;BME280;18221;38.704;0.152;2022-11-02T07:26:05;99616.25;;;22.79;59.04
10176;BME280;18221;38.704;0.152;2022-11-02T07:28:33;99619.69;;;22.53;59.56
10176;BME280;18221;38.704;0.152;2022-11-02T07:31:03;99625.25;;;22.39;60.12
10176;BME280;18221;38.704;0.152;2022-11-02T07:33:31;99628.63;;;22.47;59.90
10176;BME280;18221;38.704;0.152;2022-11-02T07:36:02;99621.22;;;22.62;59.54
10176;BME280;18221;38.704;0.152;2022-11-02T07:38:30;99628.31;;;22.70;59.30
10176;BME280;18221;38.704;0.152;2022-11-02T07:40:58;99629.19;;;22.77;58.93
10176;BME280;18221;38.704;0.152;2022-11-02T07:43:28;99630.41;;;22.68;59.21
10176;BME280;18221;38.704;0.152;2022-11-02T07:45:55;99627.03;;;22.66;59.39
10176;BME280;18221;38.704;0.152;2022-11-02T07:48:23;99633.69;;;22.63;59.66
10176;BME280;18221;38.704;0.152;2022-11-02T07:50:51;99628.56;;;22.82;59.09
10176;BME280;18221;38.704;0.152;2022-11-02T07:53:19;99632.56;;;22.92;58.98
10176;BME280;18221;38.704;0.152;2022-11-02T07:55:47;99641.28;;;22.88;59.07
10176;BME280;18221;38.704;0.152;2022-11-02T07:58:15;99650.47;;;22.93;59.18
10176;BME280;18221;38.704;0.152;2022-11-02T08:00:44;99649.66;;;22.93;58.98
10176;BME280;18221;38.704;0.152;2022-11-02T08:03:12;99655.91;;;23.00;58.89
10176;BME280;18221;38.704;0.152;2022-11-02T08:05:42;99651.78;;;23.10;58.92
10176;BME280;18221;38.704;0.152;2022-11-02T08:08:12;99655.13;;;23.12;58.76
10176;BME280;18221;38.704;0.152;2022-11-02T08:10:42;99657.22;;;23.23;58.23
10176;BME280;18221;38.704;0.152;2022-11-02T08:13:13;99655.56;;;23.22;58.37
10176;BME280;18221;38.704;0.152;2022-11-02T08:15:41;99659.72;;;23.18;58.67
10176;BME280;18221;38.704;0.152;2022-11-02T08:18:14;99659.13;;;23.23;58.08
10176;BME280;18221;38.704;0.152;2022-11-02T08:20:43;99663.50;;;23.30;58.06
10176;BME280;18221;38.704;0.152;2022-11-02T08:23:13;99658.47;;;23.21;58.43
10176;BME280;18221;38.704;0.152;2022-11-02T08:25:43;99663.03;;;23.20;58.16
10176;BME280;18221;38.704;0.152;2022-11-02T08:28:14;99664.19;;;23.46;57.93
10176;BME280;18221;38.704;0.152;2022-11-02T08:30:44;99666.28;;;23.50;57.82
10176;BME280;18221;38.704;0.152;2022-11-02T08:33:15;99664.84;;;23.54;57.37
10176;BME280;18221;38.704;0.152;2022-11-02T08:35:45;99677.13;;;23.57;57.34
10176;BME280;18221;38.704;0.152;2022-11-02T08:38:14;99671.50;;;23.65;57.49
10176;BME280;18221;38.704;0.152;2022-11-02T08:40:43;99674.41;;;23.63;57.52
10176;BME280;18221;38.704;0.152;2022-11-02T08:43:13;99671.28;;;23.73;57.07
10176;BME280;18221;38.704;0.152;2022-11-02T08:45:43;99665.66;;;23.81;56.58
10176;BME280;18221;38.704;0.152;2022-11-02T08:48:13;99668.78;;;23.91;56.55
10176;BME280;18221;38.704;0.152;2022-11-02T08:50:41;99663.56;;;23.96;56.26
10176;BME280;18221;38.704;0.152;2022-11-02T08:53:09;99664.81;;;24.00;56.17
10176;BME280;18221;38.704;0.152;2022-11-02T08:55:37;99672.78;;;24.08;55.92
10176;BME280;18221;38.704;0.152;2022-11-02T08:58:04;99670.28;;;24.13;56.08
10176;BME280;18221;38.704;0.152;2022-11-02T09:00:33;99666.09;;;24.11;55.76
10176;BME280;18221;38.704;0.152;2022-11-02T09:03:04;99665.25;;;24.23;55.79
10176;BME280;18221;38.704;0.152;2022-11-02T09:05:37;99667.13;;;24.29;55.26
10176;BME280;18221;38.704;0.152;2022-11-02T09:08:08;99670.84;;;24.41;55.02
10176;BME280;18221;38.704;0.152;2022-11-02T09:10:37;99664.34;;;24.49;54.96
10176;BME280;18221;38.704;0.152;2022-11-02T09:13:07;99670.16;;;24.59;54.81
10176;BME280;18221;38.704;0.152;2022-11-02T09:15:37;99675.34;;;24.74;54.50
10176;BME280;18221;38.704;0.152;2022-11-02T09:18:06;99679.72;;;24.75;54.28
10176;BME280;18221;38.704;0.152;2022-11-02T09:20:36;99679.69;;;24.94;54.03
10176;BME280;18221;38.704;0.152;2022-11-02T09:23:04;99678.53;;;25.08;53.60
10176;BME280;18221;38.704;0.152;2022-11-02T09:25:33;99679.06;;;25.30;53.16
10176;BME280;18221;38.704;0.152;2022-11-02T09:28:00;99679.47;;;25.34;52.74
10176;BME280;18221;38.704;0.152;2022-11-02T09:30:28;99671.41;;;25.21;53.02
10176;BME280;18221;38.704;0.152;2022-11-02T09:32:58;99680.28;;;25.34;52.38
10176;BME280;18221;38.704;0.152;2022-11-02T09:35:28;99678.59;;;25.46;52.25
10176;BME280;18221;38.704;0.152;2022-11-02T09:37:58;99683.22;;;25.70;51.76
10176;BME280;18221;38.704;0.152;2022-11-02T09:40:35;99685.94;;;25.70;51.19
10176;BME280;18221;38.704;0.152;2022-11-02T09:43:15;99687.25;;;25.61;51.51
10176;BME280;18221;38.704;0.152;2022-11-02T09:45:54;99681.41;;;25.58;51.77
10176;BME280;18221;38.704;0.152;2022-11-02T09:48:27;99682.50;;;25.82;50.95
10176;BME280;18221;38.704;0.152;2022-11-02T09:51:04;99680.75;;;25.94;50.72
10176;BME280;18221;38.704;0.152;2022-11-02T09:53:49;99677.84;;;25.89;50.85
10176;BME280;18221;38.704;0.152;2022-11-02T09:56:21;99680.81;;;26.05;50.63
10176;BME280;18221;38.704;0.152;2022-11-02T09:58:58;99678.06;;;26.12;50.48
10176;BME280;18221;38.704;0.152;2022-11-02T10:01:44;99678.69;;;26.14;50.01
10176;BME280;18221;38.704;0.152;2022-11-02T10:04:54;99676.72;;;26.21;49.84
10176;BME280;18221;38.704;0.152;2022-11-02T10:07:57;99674.97;;;26.33;49.50
10176;BME280;18221;38.704;0.152;2022-11-02T10:10:36;99674.56;;;26.29;49.73
10176;BME280;18221;38.704;0.152;2022-11-02T10:13:19;99675.75;;;26.33;49.45
10176;BME280;18221;38.704;0.152;2022-11-02T10:15:55;99674.44;;;26.18;49.74
10176;BME280;18221;38.704;0.152;2022-11-02T10:18:28;99674.84;;;26.21;49.55
10176;BME280;18221;38.704;0.152;2022-11-02T10:20:59;99671.16;;;26.09;50.06
10176;BME280;18221;38.704;0.152;2022-11-02T10:23:33;99674.34;;;26.06;50.05
10176;BME280;18221;38.704;0.152;2022-11-02T10:26:04;99676.06;;;26.01;50.42
10176;BME280;18221;38.704;0.152;2022-11-02T10:28:38;99674.00;;;25.96;50.63
10176;BME280;18221;38.704;0.152;2022-11-02T10:31:23;99678.06;;;26.12;49.82
10176;BME280;18221;38.704;0.152;2022-11-02T10:33:55;99676.38;;;26.11;49.75
10176;BME280;18221;38.704;0.152;2022-11-02T10:36:43;99686.41;;;26.17;49.72
10176;BME280;18221;38.704;0.152;2022-11-02T10:39:25;99684.97;;;26.14;49.85
10176;BME280;18221;38.704;0.152;2022-11-02T10:42:29;99679.63;;;26.26;49.44
10176;BME280;18221;38.704;0.152;2022-11-02T10:45:22;99674.78;;;26.28;49.33
10176;BME280;18221;38.704;0.152;2022-11-02T10:48:06;99679.75;;;26.13;49.45
10176;BME280;18221;38.704;0.152;2022-11-02T10:50:46;99672.47;;;26.07;49.81
10176;BME280;18221;38.704;0.152;2022-11-02T10:53:17;99663.13;;;25.96;50.00
10176;BME280;18221;38.704;0.152;2022-11-02T10:55:57;99652.25;;;25.96;50.17
10176;BME280;18221;38.704;0.152;2022-11-02T10:58:31;99641.44;;;26.08;50.08
10176;BME280;18221;38.704;0.152;2022-11-02T11:01:08;99648.25;;;25.99;50.10
10176;BME280;18221;38.704;0.152;2022-11-02T11:03:56;99652.41;;;26.01;50.09
10176;BME280;18221;38.704;0.152;2022-11-02T11:06:28;99646.06;;;25.83;50.44
10176;BME280;18221;38.704;0.152;2022-11-02T11:09:04;99630.69;;;25.95;50.00
10176;BME280;18221;38.704;0.152;2022-11-02T11:11:36;99628.13;;;26.00;50.34
10176;BME280;18221;38.704;0.152;2022-11-02T11:14:15;99635.69;;;25.98;50.31
10176;BME280;18221;38.704;0.152;2022-11-02T11:16:47;99631.34;;;25.90;49.70
10176;BME280;18221;38.704;0.152;2022-11-02T11:19:34;99628.78;;;25.95;50.12
10176;BME280;18221;38.704;0.152;2022-11-02T11:22:22;99619.41;;;26.16;49.86
10176;BME280;18221;38.704;0.152;2022-11-02T11:24:50;99622.56;;;26.13;49.76
10176;BME280;18221;38.704;0.152;2022-11-02T11:27:19;99618.06;;;26.25;49.62
10176;BME280;18221;38.704;0.152;2022-11-02T11:29:53;99616.09;;;26.32;49.05
10176;BME280;18221;38.704;0.152;2022-11-02T11:32:24;99613.59;;;26.12;48.87
10176;BME280;18221;38.704;0.152;2022-11-02T11:34:59;99612.97;;;26.28;48.74
10176;BME280;18221;38.704;0.152;2022-11-02T11:37:28;99611.34;;;26.27;48.31
10176;BME280;18221;38.704;0.152;2022-11-02T11:40:01;99603.03;;;25.98;49.20
10176;BME280;18221;38.704;0.152;2022-11-02T11:42:34;99603.03;;;25.98;49.30
10176;BME280;18221;38.704;0.152;2022-11-02T11:45:16;99597.56;;;25.80;49.93
10176;BME280;18221;38.704;0.152;2022-11-02T11:47:50;99595.25;;;26.01;49.77
10176;BME280;18221;38.704;0.152;2022-11-02T11:50:19;99595.06;;;26.21;49.39
10176;BME280;18221;38.704;0.152;2022-11-02T11:53:07;99587.00;;;26.08;48.98
10176;BME280;18221;38.704;0.152;2022-11-02T11:55:46;99585.69;;;26.35;48.73
10176;BME280;18221;38.704;0.152;2022-11-02T11:58:20;99580.53;;;26.45;48.34
10176;BME280;18221;38.704;0.152;2022-11-02T12:01:06;99573.41;;;26.44;47.80
10176;BME280;18221;38.704;0.152;2022-11-02T12:03:50;99578.22;;;26.30;47.75
10176;BME280;18221;38.704;0.152;2022-11-02T12:06:28;99580.00;;;26.36;48.02
10176;BME280;18221;38.704;0.152;2022-11-02T12:09:08;99571.47;;;26.33;47.48
10176;BME280;18221;38.704;0.152;2022-11-02T12:11:52;99569.41;;;26.47;46.96
10176;BME280;18221;38.704;0.152;2022-11-02T12:14:47;99560.56;;;26.51;47.04
10176;BME280;18221;38.704;0.152;2022-11-02T12:20:55;99554.13;;;26.64;48.05
10176;BME280;18221;38.704;0.152;2022-11-02T12:23:51;99553.59;;;26.55;47.92
10176;BME280;18221;38.704;0.152;2022-11-02T12:26:37;99546.63;;;26.59;47.45
10176;BME280;18221;38.704;0.152;2022-11-02T12:29:42;99549.53;;;26.46;48.08
10176;BME280;18221;38.704;0.152;2022-11-02T12:32:32;99546.47;;;26.54;48.01
10176;BME280;18221;38.704;0.152;2022-11-02T12:35:27;99537.53;;;26.65;48.15
10176;BME280;18221;38.704;0.152;2022-11-02T12:38:33;99541.66;;;26.86;47.67
10176;BME280;18221;38.704;0.152;2022-11-02T12:41:09;99532.00;;;27.02;47.83
10176;BME280;18221;38.704;0.152;2022-11-02T12:43:41;99530.81;;;26.98;47.32
10176;BME280;18221;38.704;0.152;2022-11-02T12:46:32;99534.13;;;27.00;47.28
10176;BME280;18221;38.704;0.152;2022-11-02T12:49:24;99533.88;;;26.89;47.39
10176;BME280;18221;38.704;0.152;2022-11-02T12:52:06;99536.00;;;26.87;47.28
10176;BME280;18221;38.704;0.152;2022-11-02T12:54:47;99534.44;;;26.80;47.08
10176;BME280;18221;38.704;0.152;2022-11-02T12:57:19;99527.81;;;26.87;46.76
10176;BME280;18221;38.704;0.152;2022-11-02T12:59:51;99519.38;;;26.77;46.58
10176;BME280;18221;38.704;0.152;2022-11-02T13:02:26;99518.31;;;26.78;46.88
10176;BME280;18221;38.704;0.152;2022-11-02T13:05:03;99517.91;;;26.93;47.29
10176;BME280;18221;38.704;0.152;2022-11-02T13:07:38;99510.66;;;26.98;47.12
10176;BME280;18221;38.704;0.152;2022-11-02T13:10:16;99510.91;;;26.97;46.79
10176;BME280;18221;38.704;0.152;2022-11-02T13:12:48;99498.19;;;26.91;46.92
10176;BME280;18221;38.704;0.152;2022-11-02T13:15:21;99495.13;;;26.99;46.64
10176;BME280;18221;38.704;0.152;2022-11-02T13:17:55;99504.13;;;26.88;46.52
10176;BME280;18221;38.704;0.152;2022-11-02T13:20:29;99491.81;;;26.97;46.08
10176;BME280;18221;38.704;0.152;2022-11-02T13:23:05;99491.13;;;27.02;45.21
10176;BME280;18221;38.704;0.152;2022-11-02T13:25:40;99494.91;;;27.01;44.97
10176;BME280;18221;38.704;0.152;2022-11-02T13:28:17;99481.88;;;27.03;44.84
10176;BME280;18221;38.704;0.152;2022-11-02T13:30:47;99481.53;;;27.11;44.99
10176;BME280;18221;38.704;0.152;2022-11-02T13:33:20;99477.47;;;27.02;45.16
10176;BME280;18221;38.704;0.152;2022-11-02T13:35:53;99474.41;;;26.98;45.43
10176;BME280;18221;38.704;0.152;2022-11-02T13:38:29;99473.34;;;26.99;46.08
10176;BME280;18221;38.704;0.152;2022-11-02T13:41:24;99467.06;;;27.10;45.94
10176;BME280;18221;38.704;0.152;2022-11-02T13:44:33;99467.69;;;27.35;45.16
10176;BME280;18221;38.704;0.152;2022-11-02T13:47:47;99464.72;;;27.37;44.70
10176;BME280;18221;38.704;0.152;2022-11-02T13:50:23;99455.38;;;27.44;44.07